sensor_id;sensor_type;location;lat;lon;timestamp;temperature;humidity
8563;DHT22;16392;52.508;13.468;2022-07-31T00:00:45;18.40;99.90
8563;DHT22;16392;52.508;13.468;2022-07-31T00:03:11;18.40;99.90
8563;DHT22;16392;52.508;13.468;2022-07-31T00:05:39;18.40;1.00
8563;DHT22;16392;52.508;13.468;2022-07-31T00:08:06;18.30;1.00
8563;DHT22;16392;52.508;13.468;2022-07-31T00:10:34;18.30;1.00
8563;DHT22;16392;52.508;13.468;2022-07-31T00:13:00;18.30;1.00
8563;DHT22;16392;52.508;13.468;2022-07-31T00:15:27;18.20;1.00
8563;DHT22;16392;52.508;13.468;2022-07-31T00:17:54;18.10;1.00
8563;DHT22;16392;52.508;13.468;2022-07-31T00:20:20;18.10;1.00
8563;DHT22;16392;52.508;13.468;2022-07-31T00:22:48;18.10;1.00
8563;DHT22;16392;52.508;13.468;2022-07-31T00:25:17;17.90;99.90
8563;DHT22;16392;52.508;13.468;2022-07-31T00:27:44;18.00;39.90
8563;DHT22;16392;52.508;13.468;2022-07-31T00:30:11;17.90;50.90
8563;DHT22;16392;52.508;13.468;2022-07-31T00:32:38;17.90;99.90
8563;DHT22;16392;52.508;13.468;2022-07-31T00:35:06;17.90;99.90
8563;DHT22;16392;52.508;13.468;2022-07-31T00:37:34;17.80;99.90
8563;DHT22;16392;52.508;13.468;2022-07-31T00:40:04;17.70;99.90
8563;DHT22;16392;52.508;13.468;2022-07-31T00:42:31;17.70;99.90
8563;DHT22;16392;52.508;13.468;2022-07-31T00:44:58;17.70;99.90
8563;DHT22;16392;52.508;13.468;2022-07-31T00:47:24;17.60;99.90
8563;DHT22;16392;52.508;13.468;2022-07-31T00:49:51;17.60;99.90
8563;DHT22;16392;52.508;13.468;2022-07-31T00:52:18;17.60;99.90
8563;DHT22;16392;52.508;13.468;2022-07-31T00:54:45;17.60;99.90
8563;DHT22;16392;52.508;13.468;2022-07-31T00:57:13;17.50;99.90
8563;DHT22;16392;52.508;13.468;2022-07-31T00:59:40;17.50;99.90
8563;DHT22;16392;52.508;13.468;2022-07-31T01:02:08;17.50;99.90
8563;DHT22;16392;52.508;13.468;2022-07-31T01:04:35;17.60;99.90
8563;DHT22;16392;52.508;13.468;2022-07-31T01:07:02;17.50;99.90
8563;DHT22;16392;52.508;13.468;2022-07-31T01:09:29;17.40;99.90
8563;DHT22;16392;52.508;13.468;2022-07-31T01:11:59;17.30;99.90
8563;DHT22;16392;52.508;13.468;2022-07-31T01:14:31;17.20;99.90
8563;DHT22;16392;52.508;13.468;2022-07-31T01:17:00;17.30;99.90
8563;DHT22;16392;52.508;13.468;2022-07-31T01:19:31;17.30;99.90
8563;DHT22;16392;52.508;13.468;2022-07-31T01:22:09;17.20;99.90
8563;DHT22;16392;52.508;13.468;2022-07-31T01:24:51;17.20;99.90
8563;DHT22;16392;52.508;13.468;2022-07-31T01:27:28;17.20;99.90
8563;DHT22;16392;52.508;13.468;2022-07-31T01:30:00;17.20;99.90
8563;DHT22;16392;52.508;13.468;2022-07-31T01:32:33;17.20;99.90
8563;DHT22;16392;52.508;13.468;2022-07-31T01:35:05;17.10;99.90
8563;DHT22;16392;52.508;13.468;2022-07-31T01:37:35;17.10;99.90
8563;DHT22;16392;52.508;13.468;2022-07-31T01:40:10;17.10;99.90
8563;DHT22;16392;52.508;13.468;2022-07-31T01:42:43;17.20;99.90
8563;DHT22;16392;52.508;13.468;2022-07-31T01:45:14;17.20;99.90
8563;DHT22;16392;52.508;13.468;2022-07-31T01:47:43;17.30;99.90
8563;DHT22;16392;52.508;13.468;2022-07-31T01:50:10;17.20;99.90
8563;DHT22;16392;52.508;13.468;2022-07-31T01:52:39;17.20;99.90
8563;DHT22;16392;52.508;13.468;2022-07-31T01:55:08;17.10;99.90
8563;DHT22;16392;52.508;13.468;2022-07-31T01:57:37;17.00;99.90
8563;DHT22;16392;52.508;13.468;2022-07-31T02:00:07;17.00;99.90
8563;DHT22;16392;52.508;13.468;2022-07-31T02:02:37;17.00;99.90
8563;DHT22;16392;52.508;13.468;2022-07-31T02:05:06;17.00;99.90
8563;DHT22;16392;52.508;13.468;2022-07-31T02:07:34;17.00;99.90
8563;DHT22;16392;52.508;13.468;2022-07-31T02:10:03;17.10;99.90
8563;DHT22;16392;52.508;13.468;2022-07-31T02:12:30;17.00;99.90
8563;DHT22;16392;52.508;13.468;2022-07-31T02:14:58;16.90;99.90
8563;DHT22;16392;52.508;13.468;2022-07-31T02:17:25;16.90;99.90
8563;DHT22;16392;52.508;13.468;2022-07-31T02:19:53;16.80;99.90
8563;DHT22;16392;52.508;13.468;2022-07-31T02:22:20;16.70;99.90
8563;DHT22;16392;52.508;13.468;2022-07-31T02:24:47;16.80;99.90
8563;DHT22;16392;52.508;13.468;2022-07-31T02:27:14;16.80;99.90
8563;DHT22;16392;52.508;13.468;2022-07-31T02:29:41;16.80;99.90
8563;DHT22;16392;52.508;13.468;2022-07-31T02:32:09;16.70;99.90
8563;DHT22;16392;52.508;13.468;2022-07-31T02:34:39;16.60;99.90
8563;DHT22;16392;52.508;13.468;2022-07-31T02:37:07;16.60;99.90
8563;DHT22;16392;52.508;13.468;2022-07-31T02:39:35;16.60;99.90
8563;DHT22;16392;52.508;13.468;2022-07-31T02:42:04;16.60;99.90
8563;DHT22;16392;52.508;13.468;2022-07-31T02:44:32;16.50;99.90
8563;DHT22;16392;52.508;13.468;2022-07-31T02:46:59;16.50;99.90
8563;DHT22;16392;52.508;13.468;2022-07-31T02:49:30;16.50;99.90
8563;DHT22;16392;52.508;13.468;2022-07-31T02:51:57;16.40;99.90
8563;DHT22;16392;52.508;13.468;2022-07-31T02:54:26;16.40;99.90
8563;DHT22;16392;52.508;13.468;2022-07-31T02:56:53;16.30;99.90
8563;DHT22;16392;52.508;13.468;2022-07-31T02:59:19;16.20;99.90
8563;DHT22;16392;52.508;13.468;2022-07-31T03:01:47;16.20;99.90
8563;DHT22;16392;52.508;13.468;2022-07-31T03:04:13;16.20;99.90
8563;DHT22;16392;52.508;13.468;2022-07-31T03:06:40;16.20;99.90
8563;DHT22;16392;52.508;13.468;2022-07-31T03:09:07;16.20;99.90
8563;DHT22;16392;52.508;13.468;2022-07-31T03:11:35;16.30;99.90
8563;DHT22;16392;52.508;13.468;2022-07-31T03:14:03;16.40;99.90
8563;DHT22;16392;52.508;13.468;2022-07-31T03:16:31;16.40;99.90
8563;DHT22;16392;52.508;13.468;2022-07-31T03:19:00;16.40;99.90
8563;DHT22;16392;52.508;13.468;2022-07-31T03:21:27;16.30;99.90
8563;DHT22;16392;52.508;13.468;2022-07-31T03:23:54;16.30;99.90
8563;DHT22;16392;52.508;13.468;2022-07-31T03:26:22;16.30;99.90
8563;DHT22;16392;52.508;13.468;2022-07-31T03:28:50;16.30;99.90
8563;DHT22;16392;52.508;13.468;2022-07-31T03:31:16;16.30;99.90
8563;DHT22;16392;52.508;13.468;2022-07-31T03:33:43;16.20;99.90
8563;DHT22;16392;52.508;13.468;2022-07-31T03:36:10;16.20;99.90
8563;DHT22;16392;52.508;13.468;2022-07-31T03:38:37;16.20;99.90
8563;DHT22;16392;52.508;13.468;2022-07-31T03:41:03;16.20;99.90
8563;DHT22;16392;52.508;13.468;2022-07-31T03:43:31;16.10;99.90
8563;DHT22;16392;52.508;13.468;2022-07-31T03:46:00;16.10;99.90
8563;DHT22;16392;52.508;13.468;2022-07-31T03:48:28;16.20;99.90
8563;DHT22;16392;52.508;13.468;2022-07-31T03:50:55;16.30;99.90
8563;DHT22;16392;52.508;13.468;2022-07-31T03:53:22;16.30;99.90
8563;DHT22;16392;52.508;13.468;2022-07-31T03:55:51;16.30;99.90
8563;DHT22;16392;52.508;13.468;2022-07-31T03:58:19;16.40;99.90
8563;DHT22;16392;52.508;13.468;2022-07-31T04:00:46;16.80;99.90
8563;DHT22;16392;52.508;13.468;2022-07-31T04:03:14;17.20;99.90
8563;DHT22;16392;52.508;13.468;2022-07-31T04:05:43;17.70;99.90
8563;DHT22;16392;52.508;13.468;2022-07-31T04:08:10;18.10;99.90
8563;DHT22;16392;52.508;13.468;2022-07-31T04:10:36;18.40;99.90
8563;DHT22;16392;52.508;13.468;2022-07-31T04:13:04;18.80;99.90
8563;DHT22;16392;52.508;13.468;2022-07-31T04:15:31;19.10;99.90
8563;DHT22;16392;52.508;13.468;2022-07-31T04:17:57;19.40;91.80
8563;DHT22;16392;52.508;13.468;2022-07-31T04:20:25;19.70;1.00
8563;DHT22;16392;52.508;13.468;2022-07-31T04:22:52;20.10;1.00
8563;DHT22;16392;52.508;13.468;2022-07-31T04:25:19;20.50;1.00
8563;DHT22;16392;52.508;13.468;2022-07-31T04:27:45;20.80;1.00
8563;DHT22;16392;52.508;13.468;2022-07-31T04:30:12;20.90;1.00
8563;DHT22;16392;52.508;13.468;2022-07-31T04:32:39;21.10;99.90
8563;DHT22;16392;52.508;13.468;2022-07-31T04:35:07;21.30;1.00
8563;DHT22;16392;52.508;13.468;2022-07-31T04:37:35;21.40;1.00
8563;DHT22;16392;52.508;13.468;2022-07-31T04:40:02;21.60;99.90
8563;DHT22;16392;52.508;13.468;2022-07-31T04:42:29;21.80;99.90
8563;DHT22;16392;52.508;13.468;2022-07-31T04:44:55;21.90;1.00
8563;DHT22;16392;52.508;13.468;2022-07-31T04:47:22;22.00;1.00
8563;DHT22;16392;52.508;13.468;2022-07-31T04:49:48;22.20;99.90
8563;DHT22;16392;52.508;13.468;2022-07-31T04:52:15;22.40;1.00
8563;DHT22;16392;52.508;13.468;2022-07-31T04:54:43;22.70;1.00
8563;DHT22;16392;52.508;13.468;2022-07-31T04:57:10;23.10;1.00
8563;DHT22;16392;52.508;13.468;2022-07-31T04:59:36;23.30;1.00
8563;DHT22;16392;52.508;13.468;2022-07-31T05:02:03;23.70;1.00
8563;DHT22;16392;52.508;13.468;2022-07-31T05:04:30;23.80;1.00
8563;DHT22;16392;52.508;13.468;2022-07-31T05:06:57;24.00;99.90
8563;DHT22;16392;52.508;13.468;2022-07-31T05:09:24;24.20;99.90
8563;DHT22;16392;52.508;13.468;2022-07-31T05:11:55;24.20;1.00
8563;DHT22;16392;52.508;13.468;2022-07-31T05:14:22;24.10;1.00
8563;DHT22;16392;52.508;13.468;2022-07-31T05:16:49;24.20;1.00
8563;DHT22;16392;52.508;13.468;2022-07-31T05:19:16;24.70;1.00
8563;DHT22;16392;52.508;13.468;2022-07-31T05:21:43;25.00;85.20
8563;DHT22;16392;52.508;13.468;2022-07-31T05:24:11;25.40;1.00
8563;DHT22;16392;52.508;13.468;2022-07-31T05:26:37;25.90;1.00
8563;DHT22;16392;52.508;13.468;2022-07-31T05:29:05;26.60;99.90
8563;DHT22;16392;52.508;13.468;2022-07-31T05:31:32;26.70;99.90
8563;DHT22;16392;52.508;13.468;2022-07-31T05:33:59;26.80;99.90
8563;DHT22;16392;52.508;13.468;2022-07-31T05:36:26;26.60;99.90
8563;DHT22;16392;52.508;13.468;2022-07-31T05:38:52;26.50;99.90
8563;DHT22;16392;52.508;13.468;2022-07-31T05:41:19;26.70;99.90
8563;DHT22;16392;52.508;13.468;2022-07-31T05:43:46;26.90;99.90
8563;DHT22;16392;52.508;13.468;2022-07-31T05:46:14;27.00;99.90
8563;DHT22;16392;52.508;13.468;2022-07-31T05:48:42;27.20;94.70
8563;DHT22;16392;52.508;13.468;2022-07-31T05:51:10;26.80;99.90
8563;DHT22;16392;52.508;13.468;2022-07-31T05:53:37;27.10;64.10
8563;DHT22;16392;52.508;13.468;2022-07-31T05:56:04;27.80;1.00
8563;DHT22;16392;52.508;13.468;2022-07-31T05:58:32;28.20;1.00
8563;DHT22;16392;52.508;13.468;2022-07-31T06:00:59;28.20;1.00
8563;DHT22;16392;52.508;13.468;2022-07-31T06:03:27;28.30;1.00
8563;DHT22;16392;52.508;13.468;2022-07-31T06:05:56;28.60;1.00
8563;DHT22;16392;52.508;13.468;2022-07-31T06:08:22;29.30;1.00
8563;DHT22;16392;52.508;13.468;2022-07-31T06:10:50;30.20;1.00
8563;DHT22;16392;52.508;13.468;2022-07-31T06:13:17;30.50;1.00
8563;DHT22;16392;52.508;13.468;2022-07-31T06:15:44;30.60;1.00
8563;DHT22;16392;52.508;13.468;2022-07-31T06:18:12;30.20;1.00
8563;DHT22;16392;52.508;13.468;2022-07-31T06:20:40;29.50;1.00
8563;DHT22;16392;52.508;13.468;2022-07-31T06:23:07;29.40;1.00
8563;DHT22;16392;52.508;13.468;2022-07-31T06:25:33;30.30;1.00
8563;DHT22;16392;52.508;13.468;2022-07-31T06:28:00;30.30;1.00
8563;DHT22;16392;52.508;13.468;2022-07-31T06:30:27;30.40;1.00
8563;DHT22;16392;52.508;13.468;2022-07-31T06:32:54;30.10;1.00
8563;DHT22;16392;52.508;13.468;2022-07-31T06:35:20;29.30;1.00
8563;DHT22;16392;52.508;13.468;2022-07-31T06:37:48;28.90;1.00
8563;DHT22;16392;52.508;13.468;2022-07-31T06:40:15;28.20;1.00
8563;DHT22;16392;52.508;13.468;2022-07-31T06:42:42;28.50;1.00
8563;DHT22;16392;52.508;13.468;2022-07-31T06:45:10;28.90;1.00
8563;DHT22;16392;52.508;13.468;2022-07-31T06:47:36;28.70;1.00
8563;DHT22;16392;52.508;13.468;2022-07-31T06:50:03;28.80;1.00
8563;DHT22;16392;52.508;13.468;2022-07-31T06:52:30;28.40;1.00
8563;DHT22;16392;52.508;13.468;2022-07-31T06:54:58;28.50;1.00
8563;DHT22;16392;52.508;13.468;2022-07-31T06:57:25;28.20;1.00
8563;DHT22;16392;52.508;13.468;2022-07-31T06:59:52;28.70;1.00
8563;DHT22;16392;52.508;13.468;2022-07-31T07:02:18;28.70;1.00
8563;DHT22;16392;52.508;13.468;2022-07-31T07:04:46;29.30;1.00
8563;DHT22;16392;52.508;13.468;2022-07-31T07:07:13;30.20;1.00
8563;DHT22;16392;52.508;13.468;2022-07-31T07:09:39;28.80;1.00
8563;DHT22;16392;52.508;13.468;2022-07-31T07:12:08;28.60;1.00
8563;DHT22;16392;52.508;13.468;2022-07-31T07:14:34;29.80;1.00
8563;DHT22;16392;52.508;13.468;2022-07-31T07:17:02;29.60;1.00
8563;DHT22;16392;52.508;13.468;2022-07-31T07:19:30;29.30;1.00
8563;DHT22;16392;52.508;13.468;2022-07-31T07:21:56;29.80;1.00
8563;DHT22;16392;52.508;13.468;2022-07-31T07:24:23;30.30;1.00
8563;DHT22;16392;52.508;13.468;2022-07-31T07:26:49;31.10;1.00
8563;DHT22;16392;52.508;13.468;2022-07-31T07:29:18;31.10;1.00
8563;DHT22;16392;52.508;13.468;2022-07-31T07:31:44;31.00;1.00
8563;DHT22;16392;52.508;13.468;2022-07-31T07:34:11;31.40;1.00
8563;DHT22;16392;52.508;13.468;2022-07-31T07:36:37;32.00;1.00
8563;DHT22;16392;52.508;13.468;2022-07-31T07:39:04;32.40;1.00
8563;DHT22;16392;52.508;13.468;2022-07-31T07:41:30;32.70;1.00
8563;DHT22;16392;52.508;13.468;2022-07-31T07:43:57;32.60;1.00
8563;DHT22;16392;52.508;13.468;2022-07-31T07:46:25;32.60;1.00
8563;DHT22;16392;52.508;13.468;2022-07-31T07:48:52;32.40;1.00
8563;DHT22;16392;52.508;13.468;2022-07-31T07:51:19;32.50;1.00
8563;DHT22;16392;52.508;13.468;2022-07-31T07:53:47;32.50;1.00
8563;DHT22;16392;52.508;13.468;2022-07-31T07:56:13;32.40;1.00
8563;DHT22;16392;52.508;13.468;2022-07-31T07:58:40;32.70;1.00
8563;DHT22;16392;52.508;13.468;2022-07-31T08:01:07;32.50;1.00
8563;DHT22;16392;52.508;13.468;2022-07-31T08:03:35;32.70;1.00
8563;DHT22;16392;52.508;13.468;2022-07-31T08:06:01;32.90;1.00
8563;DHT22;16392;52.508;13.468;2022-07-31T08:08:28;33.40;1.00
8563;DHT22;16392;52.508;13.468;2022-07-31T08:10:55;32.70;1.00
8563;DHT22;16392;52.508;13.468;2022-07-31T08:13:21;32.50;1.00
8563;DHT22;16392;52.508;13.468;2022-07-31T08:15:48;32.70;1.00
8563;DHT22;16392;52.508;13.468;2022-07-31T08:18:15;33.20;1.00
8563;DHT22;16392;52.508;13.468;2022-07-31T08:20:43;33.20;1.00
8563;DHT22;16392;52.508;13.468;2022-07-31T08:23:10;32.80;1.00
8563;DHT22;16392;52.508;13.468;2022-07-31T08:25:37;33.10;1.00
8563;DHT22;16392;52.508;13.468;2022-07-31T08:28:03;33.30;1.00
8563;DHT22;16392;52.508;13.468;2022-07-31T08:30:31;33.20;1.00
8563;DHT22;16392;52.508;13.468;2022-07-31T08:32:58;33.20;1.00
8563;DHT22;16392;52.508;13.468;2022-07-31T08:35:24;33.40;1.00
8563;DHT22;16392;52.508;13.468;2022-07-31T08:37:52;33.20;1.00
8563;DHT22;16392;52.508;13.468;2022-07-31T08:40:19;33.30;1.00
8563;DHT22;16392;52.508;13.468;2022-07-31T08:42:46;33.00;1.00
8563;DHT22;16392;52.508;13.468;2022-07-31T08:45:13;32.30;1.00
8563;DHT22;16392;52.508;13.468;2022-07-31T08:47:41;32.20;1.00
8563;DHT22;16392;52.508;13.468;2022-07-31T08:50:13;32.20;1.00
8563;DHT22;16392;52.508;13.468;2022-07-31T08:52:42;31.90;1.00
8563;DHT22;16392;52.508;13.468;2022-07-31T08:55:11;32.60;1.00
8563;DHT22;16392;52.508;13.468;2022-07-31T08:57:38;32.70;1.00
8563;DHT22;16392;52.508;13.468;2022-07-31T09:00:08;31.60;1.00
8563;DHT22;16392;52.508;13.468;2022-07-31T09:02:38;32.00;1.00
8563;DHT22;16392;52.508;13.468;2022-07-31T09:05:06;32.30;1.00
8563;DHT22;16392;52.508;13.468;2022-07-31T09:07:33;32.70;1.00
8563;DHT22;16392;52.508;13.468;2022-07-31T09:09:59;33.30;1.00
8563;DHT22;16392;52.508;13.468;2022-07-31T09:12:29;33.10;1.00
8563;DHT22;16392;52.508;13.468;2022-07-31T09:14:56;33.50;1.00
8563;DHT22;16392;52.508;13.468;2022-07-31T09:17:31;33.20;1.00
8563;DHT22;16392;52.508;13.468;2022-07-31T09:19:59;33.60;1.00
8563;DHT22;16392;52.508;13.468;2022-07-31T09:22:27;33.70;1.00
8563;DHT22;16392;52.508;13.468;2022-07-31T09:25:09;33.70;1.00
8563;DHT22;16392;52.508;13.468;2022-07-31T09:27:38;32.90;1.00
8563;DHT22;16392;52.508;13.468;2022-07-31T09:30:07;32.30;1.00
8563;DHT22;16392;52.508;13.468;2022-07-31T09:32:34;32.30;1.00
8563;DHT22;16392;52.508;13.468;2022-07-31T09:35:09;32.40;1.00
8563;DHT22;16392;52.508;13.468;2022-07-31T09:37:36;32.90;1.00
8563;DHT22;16392;52.508;13.468;2022-07-31T09:40:04;32.50;1.00
8563;DHT22;16392;52.508;13.468;2022-07-31T09:42:38;32.60;1.00
8563;DHT22;16392;52.508;13.468;2022-07-31T09:45:16;32.60;1.00
8563;DHT22;16392;52.508;13.468;2022-07-31T09:47:44;33.10;1.00
8563;DHT22;16392;52.508;13.468;2022-07-31T09:50:11;33.30;1.00
8563;DHT22;16392;52.508;13.468;2022-07-31T09:52:38;33.10;1.00
8563;DHT22;16392;52.508;13.468;2022-07-31T09:55:06;33.30;1.00
8563;DHT22;16392;52.508;13.468;2022-07-31T09:57:33;31.60;1.00
8563;DHT22;16392;52.508;13.468;2022-07-31T10:00:05;31.00;1.00
8563;DHT22;16392;52.508;13.468;2022-07-31T10:02:32;30.60;1.00
8563;DHT22;16392;52.508;13.468;2022-07-31T10:05:00;30.70;1.00
8563;DHT22;16392;52.508;13.468;2022-07-31T10:07:28;30.70;1.00
8563;DHT22;16392;52.508;13.468;2022-07-31T10:10:00;31.20;1.00
8563;DHT22;16392;52.508;13.468;2022-07-31T10:12:29;31.90;1.00
8563;DHT22;16392;52.508;13.468;2022-07-31T10:15:04;32.00;1.00
8563;DHT22;16392;52.508;13.468;2022-07-31T10:17:32;32.30;1.00
8563;DHT22;16392;52.508;13.468;2022-07-31T10:20:03;33.00;1.00
8563;DHT22;16392;52.508;13.468;2022-07-31T10:22:33;33.40;1.00
8563;DHT22;16392;52.508;13.468;2022-07-31T10:25:00;30.30;1.00
8563;DHT22;16392;52.508;13.468;2022-07-31T10:27:28;28.90;1.00
8563;DHT22;16392;52.508;13.468;2022-07-31T10:29:55;28.00;1.00
8563;DHT22;16392;52.508;13.468;2022-07-31T10:32:23;28.10;1.00
8563;DHT22;16392;52.508;13.468;2022-07-31T10:34:51;28.60;1.00
8563;DHT22;16392;52.508;13.468;2022-07-31T10:37:20;29.50;1.00
8563;DHT22;16392;52.508;13.468;2022-07-31T10:39:52;29.70;1.00
8563;DHT22;16392;52.508;13.468;2022-07-31T10:42:30;29.00;1.00
8563;DHT22;16392;52.508;13.468;2022-07-31T10:45:05;29.70;1.00
8563;DHT22;16392;52.508;13.468;2022-07-31T10:47:34;30.80;1.00
8563;DHT22;16392;52.508;13.468;2022-07-31T10:50:02;32.00;1.00
8563;DHT22;16392;52.508;13.468;2022-07-31T10:52:30;32.60;1.00
8563;DHT22;16392;52.508;13.468;2022-07-31T10:54:57;33.00;1.00
8563;DHT22;16392;52.508;13.468;2022-07-31T10:57:28;33.10;1.00
8563;DHT22;16392;52.508;13.468;2022-07-31T10:59:55;33.40;1.00
8563;DHT22;16392;52.508;13.468;2022-07-31T11:02:32;33.10;1.00
8563;DHT22;16392;52.508;13.468;2022-07-31T11:05:08;32.40;1.00
8563;DHT22;16392;52.508;13.468;2022-07-31T11:07:35;32.60;1.00
8563;DHT22;16392;52.508;13.468;2022-07-31T11:10:09;32.80;1.00
8563;DHT22;16392;52.508;13.468;2022-07-31T11:12:36;32.90;1.00
8563;DHT22;16392;52.508;13.468;2022-07-31T11:15:15;33.70;1.00
8563;DHT22;16392;52.508;13.468;2022-07-31T11:17:42;33.70;1.00
8563;DHT22;16392;52.508;13.468;2022-07-31T11:20:22;34.20;1.00
8563;DHT22;16392;52.508;13.468;2022-07-31T11:22:59;34.60;1.00
8563;DHT22;16392;52.508;13.468;2022-07-31T11:25:28;35.10;1.00
8563;DHT22;16392;52.508;13.468;2022-07-31T11:27:56;34.50;1.00
8563;DHT22;16392;52.508;13.468;2022-07-31T11:30:23;33.30;1.00
8563;DHT22;16392;52.508;13.468;2022-07-31T11:32:50;33.10;1.00
8563;DHT22;16392;52.508;13.468;2022-07-31T11:35:26;33.50;1.00
8563;DHT22;16392;52.508;13.468;2022-07-31T11:37:54;33.30;1.00
8563;DHT22;16392;52.508;13.468;2022-07-31T11:40:21;32.50;1.00
8563;DHT22;16392;52.508;13.468;2022-07-31T11:42:48;32.70;1.00
8563;DHT22;16392;52.508;13.468;2022-07-31T11:45:18;33.20;1.00
8563;DHT22;16392;52.508;13.468;2022-07-31T11:47:46;33.50;1.00
8563;DHT22;16392;52.508;13.468;2022-07-31T11:50:13;33.50;1.00
8563;DHT22;16392;52.508;13.468;2022-07-31T11:52:42;31.90;1.00
8563;DHT22;16392;52.508;13.468;2022-07-31T11:55:10;31.70;1.00
8563;DHT22;16392;52.508;13.468;2022-07-31T11:57:38;32.50;1.00
8563;DHT22;16392;52.508;13.468;2022-07-31T12:00:10;31.30;1.00
8563;DHT22;16392;52.508;13.468;2022-07-31T12:02:41;31.30;1.00
8563;DHT22;16392;52.508;13.468;2022-07-31T12:05:09;30.80;1.00
8563;DHT22;16392;52.508;13.468;2022-07-31T12:07:37;30.80;1.00
8563;DHT22;16392;52.508;13.468;2022-07-31T12:10:08;29.70;1.00
8563;DHT22;16392;52.508;13.468;2022-07-31T12:12:36;29.50;1.00
8563;DHT22;16392;52.508;13.468;2022-07-31T12:15:13;29.80;1.00
8563;DHT22;16392;52.508;13.468;2022-07-31T12:17:40;30.40;1.00
8563;DHT22;16392;52.508;13.468;2022-07-31T12:20:07;31.20;1.00
8563;DHT22;16392;52.508;13.468;2022-07-31T12:22:34;31.80;1.00
8563;DHT22;16392;52.508;13.468;2022-07-31T12:25:01;32.30;1.00
8563;DHT22;16392;52.508;13.468;2022-07-31T12:27:29;32.40;1.00
8563;DHT22;16392;52.508;13.468;2022-07-31T12:29:55;32.30;1.00
8563;DHT22;16392;52.508;13.468;2022-07-31T12:32:23;33.10;1.00
8563;DHT22;16392;52.508;13.468;2022-07-31T12:35:00;32.70;1.00
8563;DHT22;16392;52.508;13.468;2022-07-31T12:37:27;32.00;1.00
8563;DHT22;16392;52.508;13.468;2022-07-31T12:39:54;30.90;1.00
8563;DHT22;16392;52.508;13.468;2022-07-31T12:42:22;30.50;1.00
8563;DHT22;16392;52.508;13.468;2022-07-31T12:44:51;30.20;1.00
8563;DHT22;16392;52.508;13.468;2022-07-31T12:47:19;29.60;1.00
8563;DHT22;16392;52.508;13.468;2022-07-31T12:49:46;29.30;1.00
8563;DHT22;16392;52.508;13.468;2022-07-31T12:52:13;29.10;1.00
8563;DHT22;16392;52.508;13.468;2022-07-31T12:54:40;29.20;1.00
8563;DHT22;16392;52.508;13.468;2022-07-31T12:57:07;29.40;1.00
8563;DHT22;16392;52.508;13.468;2022-07-31T12:59:33;29.10;1.00
8563;DHT22;16392;52.508;13.468;2022-07-31T13:02:02;29.00;1.00
8563;DHT22;16392;52.508;13.468;2022-07-31T13:04:29;29.00;1.00
8563;DHT22;16392;52.508;13.468;2022-07-31T13:06:56;29.20;1.00
8563;DHT22;16392;52.508;13.468;2022-07-31T13:09:22;29.00;1.00
8563;DHT22;16392;52.508;13.468;2022-07-31T13:11:50;29.10;1.00
8563;DHT22;16392;52.508;13.468;2022-07-31T13:14:17;29.10;1.00
8563;DHT22;16392;52.508;13.468;2022-07-31T13:16:45;29.20;1.00
8563;DHT22;16392;52.508;13.468;2022-07-31T13:19:14;29.40;1.00
8563;DHT22;16392;52.508;13.468;2022-07-31T13:21:41;30.40;1.00
8563;DHT22;16392;52.508;13.468;2022-07-31T13:24:08;30.50;1.00
8563;DHT22;16392;52.508;13.468;2022-07-31T13:26:35;30.00;1.00
8563;DHT22;16392;52.508;13.468;2022-07-31T13:29:02;30.90;1.00
8563;DHT22;16392;52.508;13.468;2022-07-31T13:31:29;31.70;1.00
8563;DHT22;16392;52.508;13.468;2022-07-31T13:33:56;32.00;1.00
8563;DHT22;16392;52.508;13.468;2022-07-31T13:36:24;31.70;1.00
8563;DHT22;16392;52.508;13.468;2022-07-31T13:38:51;31.20;1.00
8563;DHT22;16392;52.508;13.468;2022-07-31T13:41:18;31.90;1.00
8563;DHT22;16392;52.508;13.468;2022-07-31T13:43:49;31.70;1.00
8563;DHT22;16392;52.508;13.468;2022-07-31T13:46:16;32.00;1.00
8563;DHT22;16392;52.508;13.468;2022-07-31T13:48:43;32.40;1.00
8563;DHT22;16392;52.508;13.468;2022-07-31T13:51:09;32.80;1.00
8563;DHT22;16392;52.508;13.468;2022-07-31T13:53:37;32.90;1.00
8563;DHT22;16392;52.508;13.468;2022-07-31T13:56:04;31.70;1.00
8563;DHT22;16392;52.508;13.468;2022-07-31T13:58:31;30.80;1.00
8563;DHT22;16392;52.508;13.468;2022-07-31T14:00:58;30.40;1.00
8563;DHT22;16392;52.508;13.468;2022-07-31T14:03:25;30.20;1.00
8563;DHT22;16392;52.508;13.468;2022-07-31T14:05:52;30.80;1.00
8563;DHT22;16392;52.508;13.468;2022-07-31T14:08:19;31.20;1.00
8563;DHT22;16392;52.508;13.468;2022-07-31T14:10:48;31.30;1.00
8563;DHT22;16392;52.508;13.468;2022-07-31T14:13:15;31.50;1.00
8563;DHT22;16392;52.508;13.468;2022-07-31T14:15:42;31.80;1.00
8563;DHT22;16392;52.508;13.468;2022-07-31T14:18:09;31.70;1.00
8563;DHT22;16392;52.508;13.468;2022-07-31T14:20:36;31.90;1.00
8563;DHT22;16392;52.508;13.468;2022-07-31T14:23:03;32.00;1.00
8563;DHT22;16392;52.508;13.468;2022-07-31T14:25:30;31.40;1.00
8563;DHT22;16392;52.508;13.468;2022-07-31T14:27:59;31.60;1.00
8563;DHT22;16392;52.508;13.468;2022-07-31T14:30:25;31.60;1.00
8563;DHT22;16392;52.508;13.468;2022-07-31T14:32:53;32.20;1.00
8563;DHT22;16392;52.508;13.468;2022-07-31T14:35:20;32.10;1.00
8563;DHT22;16392;52.508;13.468;2022-07-31T14:37:47;32.10;1.00
8563;DHT22;16392;52.508;13.468;2022-07-31T14:40:15;32.40;1.00
8563;DHT22;16392;52.508;13.468;2022-07-31T14:42:42;32.40;1.00
8563;DHT22;16392;52.508;13.468;2022-07-31T14:45:10;32.30;1.00
8563;DHT22;16392;52.508;13.468;2022-07-31T14:47:37;31.50;1.00
8563;DHT22;16392;52.508;13.468;2022-07-31T14:50:05;30.70;1.00
8563;DHT22;16392;52.508;13.468;2022-07-31T14:52:32;30.10;1.00
8563;DHT22;16392;52.508;13.468;2022-07-31T14:54:59;30.20;1.00
8563;DHT22;16392;52.508;13.468;2022-07-31T14:57:26;30.10;1.00
8563;DHT22;16392;52.508;13.468;2022-07-31T14:59:53;29.60;1.00
8563;DHT22;16392;52.508;13.468;2022-07-31T15:02:21;29.10;1.00
8563;DHT22;16392;52.508;13.468;2022-07-31T15:04:47;28.70;1.00
8563;DHT22;16392;52.508;13.468;2022-07-31T15:07:14;28.70;1.00
8563;DHT22;16392;52.508;13.468;2022-07-31T15:09:40;29.10;1.00
8563;DHT22;16392;52.508;13.468;2022-07-31T15:12:08;29.30;1.00
8563;DHT22;16392;52.508;13.468;2022-07-31T15:14:36;29.40;1.00
8563;DHT22;16392;52.508;13.468;2022-07-31T15:17:06;29.50;1.00
8563;DHT22;16392;52.508;13.468;2022-07-31T15:19:33;29.50;1.00
8563;DHT22;16392;52.508;13.468;2022-07-31T15:22:00;29.40;1.00
8563;DHT22;16392;52.508;13.468;2022-07-31T15:24:27;29.40;1.00
8563;DHT22;16392;52.508;13.468;2022-07-31T15:26:53;29.70;1.00
8563;DHT22;16392;52.508;13.468;2022-07-31T15:29:20;29.70;1.00
8563;DHT22;16392;52.508;13.468;2022-07-31T15:31:47;30.10;1.00
8563;DHT22;16392;52.508;13.468;2022-07-31T15:34:13;29.40;1.00
8563;DHT22;16392;52.508;13.468;2022-07-31T15:36:41;29.20;1.00
8563;DHT22;16392;52.508;13.468;2022-07-31T15:39:08;29.50;1.00
8563;DHT22;16392;52.508;13.468;2022-07-31T15:41:34;29.70;1.00
8563;DHT22;16392;52.508;13.468;2022-07-31T15:44:01;29.90;1.00
8563;DHT22;16392;52.508;13.468;2022-07-31T15:46:27;30.10;1.00